createdAt,value
2018-10-18T00:00:22.340Z,50.08
2018-10-18T00:02:50.454Z,51.02
2018-10-18T00:05:18.553Z,50.60
2018-10-18T00:07:46.652Z,50.35
2018-10-18T00:10:14.789Z,50.08
2018-10-18T00:12:42.864Z,51.00
2018-10-18T00:15:11.041Z,49.50
2018-10-18T00:17:46.444Z,51.00
2018-10-18T00:20:15.570Z,50.30
2018-10-18T00:22:44.231Z,51.23
2018-10-18T00:25:12.323Z,52.10
2018-10-18T00:27:40.408Z,51.60
2018-10-18T00:30:10.867Z,50.55
2018-10-18T00:32:39.032Z,51.90
2018-10-18T00:35:07.126Z,53.28
2018-10-18T00:37:35.284Z,50.35
2018-10-18T00:40:03.485Z,51.88
2018-10-18T00:42:31.575Z,50.92
2018-10-18T00:44:59.665Z,52.10
2018-10-18T00:47:27.790Z,51.02
2018-10-18T00:49:55.941Z,52.03
2018-10-18T00:52:24.040Z,51.10
2018-10-18T00:54:52.149Z,51.37
2018-10-18T00:57:20.228Z,52.03
2018-10-18T00:59:48.417Z,52.17
2018-10-18T01:02:17.106Z,51.60
2018-10-18T01:04:45.393Z,50.83
2018-10-18T01:07:13.539Z,50.48
2018-10-18T01:09:41.623Z,50.80
2018-10-18T01:12:09.922Z,51.15
2018-10-18T01:14:37.928Z,49.90
2018-10-18T01:17:06.216Z,50.23
2018-10-18T01:19:36.540Z,49.27
2018-10-18T01:22:05.951Z,51.70
2018-10-18T01:24:34.439Z,52.30
2018-10-18T01:27:02.738Z,52.27
2018-10-18T01:29:30.917Z,51.48
2018-10-18T01:31:59.487Z,53.65
2018-10-18T01:34:27.660Z,52.85
2018-10-18T01:36:55.782Z,55.23
2018-10-18T01:39:23.975Z,56.42
2018-10-18T01:41:52.056Z,56.58
2018-10-18T01:44:20.136Z,54.50
2018-10-18T01:46:48.411Z,55.63
2018-10-18T01:49:16.514Z,54.00
2018-10-18T01:51:44.660Z,54.70
2018-10-18T01:54:12.868Z,54.00
2018-10-18T01:56:41.011Z,52.35
2018-10-18T01:59:09.131Z,53.52
2018-10-18T02:01:37.272Z,51.70
2018-10-18T02:04:05.777Z,52.62
2018-10-18T02:06:33.848Z,51.85
2018-10-18T02:09:01.943Z,50.92
2018-10-18T02:11:30.496Z,49.33
2018-10-18T02:13:58.568Z,50.92
2018-10-18T02:16:26.660Z,49.20
2018-10-18T02:18:54.750Z,48.90
2018-10-18T02:21:22.847Z,48.50
2018-10-18T02:23:50.951Z,46.13
2018-10-18T02:26:19.138Z,46.63
2018-10-18T02:28:47.299Z,47.10
2018-10-18T02:31:15.380Z,46.40
2018-10-18T02:33:43.557Z,45.50
2018-10-18T02:36:11.924Z,46.42
2018-10-18T02:38:39.983Z,42.98
2018-10-18T02:41:08.173Z,41.50
2018-10-18T02:43:36.268Z,41.68
2018-10-18T02:46:04.393Z,41.13
2018-10-18T02:48:32.599Z,41.77
2018-10-18T02:51:00.712Z,43.23
2018-10-18T02:53:28.792Z,40.10
2018-10-18T02:55:56.864Z,38.58
2018-10-18T02:58:24.985Z,37.30
2018-10-18T03:00:53.135Z,38.88
2018-10-18T03:03:21.856Z,39.63
2018-10-18T03:05:49.931Z,39.13
2018-10-18T03:08:17.999Z,41.35
2018-10-18T03:10:46.170Z,40.30
2018-10-18T03:13:14.306Z,38.73
2018-10-18T03:15:42.393Z,38.55
2018-10-18T03:18:10.564Z,37.78
2018-10-18T03:20:38.676Z,39.20
2018-10-18T03:23:07.115Z,39.20
2018-10-18T03:25:35.185Z,39.30
2018-10-18T03:28:03.444Z,39.80
2018-10-18T03:30:31.512Z,38.90
2018-10-18T03:32:59.588Z,38.50
2018-10-18T03:35:27.667Z,40.75
2018-10-18T03:37:56.248Z,39.38
2018-10-18T03:40:24.347Z,40.10
2018-10-18T03:42:52.437Z,39.88
2018-10-18T03:45:20.503Z,39.42
2018-10-18T03:47:48.580Z,40.00
2018-10-18T03:50:16.663Z,41.05
2018-10-18T03:52:44.782Z,39.85
2018-10-18T03:55:12.872Z,40.20
2018-10-18T03:57:41.067Z,37.75
2018-10-18T04:00:09.286Z,37.95
2018-10-18T04:02:37.579Z,38.70
2018-10-18T04:05:06.013Z,39.67
2018-10-18T04:07:34.105Z,38.88
2018-10-18T04:10:02.271Z,40.75
2018-10-18T04:12:30.517Z,38.78
2018-10-18T04:14:58.599Z,41.35
2018-10-18T04:17:26.749Z,40.17
2018-10-18T04:19:54.832Z,39.27
2018-10-18T04:22:23.416Z,39.03
2018-10-18T04:24:51.520Z,39.23
2018-10-18T04:27:19.732Z,38.20
2018-10-18T04:29:47.958Z,38.35
2018-10-18T04:32:16.091Z,38.75
2018-10-18T04:34:44.179Z,39.70
2018-10-18T04:37:12.261Z,39.75
2018-10-18T04:39:40.376Z,37.23
2018-10-18T04:42:08.782Z,37.90
2018-10-18T04:44:36.745Z,37.35
2018-10-18T04:47:05.378Z,34.13
2018-10-18T04:49:33.459Z,36.08
2018-10-18T04:52:01.541Z,36.25
2018-10-18T04:54:29.706Z,36.77
2018-10-18T04:56:57.934Z,35.63
2018-10-18T04:59:26.042Z,36.70
2018-10-18T05:01:54.136Z,37.00
2018-10-18T05:04:22.217Z,37.50
2018-10-18T05:06:50.379Z,34.70
2018-10-18T05:09:18.535Z,36.48
2018-10-18T05:11:46.628Z,37.60
2018-10-18T05:14:14.701Z,37.05
2018-10-18T05:16:42.808Z,37.58
2018-10-18T05:19:11.121Z,36.20
2018-10-18T05:21:39.163Z,36.93
2018-10-18T05:24:07.315Z,37.45
2018-10-18T05:26:35.407Z,35.95
2018-10-18T05:29:03.504Z,35.80
2018-10-18T05:31:32.769Z,35.08
2018-10-18T05:34:00.915Z,33.33
2018-10-18T05:36:29.004Z,31.70
2018-10-18T05:38:57.113Z,31.20
2018-10-18T05:41:25.367Z,29.30
2018-10-18T05:43:53.468Z,30.02
2018-10-18T05:46:21.557Z,29.15
2018-10-18T05:48:49.763Z,29.90
2018-10-18T05:51:17.944Z,29.87
2018-10-18T05:53:46.311Z,29.05
2018-10-18T05:56:14.490Z,30.60
2018-10-18T05:58:42.614Z,30.30
2018-10-18T06:01:10.835Z,28.07
2018-10-18T06:03:38.862Z,28.55
2018-10-18T06:06:07.012Z,28.30
2018-10-18T06:08:35.112Z,27.75
2018-10-18T06:11:08.922Z,28.12
2018-10-18T06:13:37.045Z,28.90
2018-10-18T06:16:05.140Z,27.65
2018-10-18T06:18:33.250Z,28.47
2018-10-18T06:21:01.627Z,26.97
2018-10-18T06:23:29.865Z,27.35
2018-10-18T06:25:57.923Z,26.25
2018-10-18T06:28:26.032Z,27.60
2018-10-18T06:30:54.166Z,26.87
2018-10-18T06:33:22.377Z,27.40
2018-10-18T06:35:50.545Z,25.57
2018-10-18T06:38:18.609Z,26.25
2018-10-18T06:40:46.724Z,24.67
2018-10-18T06:43:14.952Z,26.42
2018-10-18T06:45:43.061Z,26.07
2018-10-18T06:48:11.184Z,26.37
2018-10-18T06:50:39.359Z,26.60
2018-10-18T06:53:07.432Z,25.50
2018-10-18T06:55:35.548Z,26.42
2018-10-18T06:58:03.658Z,26.12
2018-10-18T07:00:31.971Z,24.90
2018-10-18T07:02:59.967Z,25.37
2018-10-18T07:05:28.397Z,24.77
2018-10-18T07:07:56.467Z,24.43
2018-10-18T07:10:24.588Z,24.12
2018-10-18T07:12:52.688Z,24.32
2018-10-18T07:15:20.808Z,25.00
2018-10-18T07:17:49.003Z,24.25
2018-10-18T07:20:17.056Z,24.40
2018-10-18T07:22:45.138Z,24.27
2018-10-18T07:25:14.718Z,22.67
2018-10-18T07:27:43.129Z,22.48
2018-10-18T07:30:12.692Z,21.48
2018-10-18T07:32:40.748Z,22.05
2018-10-18T07:35:09.916Z,22.15
2018-10-18T07:37:38.206Z,21.15
2018-10-18T07:40:07.248Z,20.12
2018-10-18T07:42:35.421Z,19.20
2018-10-18T07:45:03.525Z,19.20
2018-10-18T07:47:31.632Z,19.02
2018-10-18T07:50:00.686Z,19.40
2018-10-18T07:52:28.772Z,20.27
2018-10-18T07:54:56.860Z,20.20
2018-10-18T07:57:25.472Z,23.07
2018-10-18T07:59:53.657Z,22.58
2018-10-18T08:02:21.760Z,22.27
2018-10-18T08:04:49.852Z,23.25
2018-10-18T08:07:18.025Z,23.30
2018-10-18T08:09:46.044Z,21.90
2018-10-18T08:12:14.132Z,23.18
2018-10-18T08:14:42.292Z,22.82
2018-10-18T08:17:10.497Z,22.10
2018-10-18T08:19:38.649Z,23.10
2018-10-18T08:22:06.977Z,24.98
2018-10-18T08:24:35.082Z,25.48
2018-10-18T08:27:03.204Z,25.20
2018-10-18T08:29:31.359Z,26.23
2018-10-18T08:31:59.493Z,27.62
2018-10-18T08:34:27.572Z,28.47
2018-10-18T08:36:55.730Z,30.88
2018-10-18T08:39:23.823Z,30.48
2018-10-18T08:41:52.201Z,30.35
2018-10-18T08:44:20.106Z,29.18
2018-10-18T08:46:48.172Z,31.12
2018-10-18T08:49:16.481Z,28.67
2018-10-18T08:51:44.768Z,29.37
2018-10-18T08:54:12.868Z,28.17
2018-10-18T08:56:41.039Z,25.12
2018-10-18T08:59:09.225Z,21.85
2018-10-18T09:01:37.320Z,19.82
2018-10-18T09:04:05.451Z,17.62
2018-10-18T09:06:33.580Z,17.77
2018-10-18T09:09:01.699Z,17.92
2018-10-18T09:11:29.815Z,17.75
2018-10-18T09:13:58.020Z,17.92
2018-10-18T09:16:26.152Z,18.15
2018-10-18T09:18:54.292Z,18.15
2018-10-18T09:21:22.401Z,17.80
2018-10-18T09:23:50.616Z,17.37
2018-10-18T09:26:19.011Z,17.70
2018-10-18T09:28:47.290Z,17.70
2018-10-18T09:31:15.451Z,16.25
2018-10-18T09:33:43.601Z,15.88
2018-10-18T09:36:11.704Z,16.30
2018-10-18T09:38:39.915Z,16.73
2018-10-18T09:41:08.059Z,16.02
2018-10-18T09:43:36.175Z,16.82
2018-10-18T09:46:04.488Z,16.95
2018-10-18T09:48:32.648Z,15.78
2018-10-18T09:51:00.796Z,14.80
2018-10-18T09:53:29.868Z,14.98
2018-10-18T09:55:58.015Z,15.23
2018-10-18T09:58:26.138Z,15.03
2018-10-18T10:00:59.621Z,13.83
2018-10-18T10:03:27.792Z,13.25
2018-10-18T10:05:55.888Z,14.00
2018-10-18T10:08:24.042Z,13.05
2018-10-18T10:10:52.218Z,13.78
2018-10-18T10:13:20.458Z,14.45
2018-10-18T10:15:48.913Z,12.70
2018-10-18T10:18:17.133Z,11.80
2018-10-18T10:20:45.200Z,11.60
2018-10-18T10:23:13.300Z,11.10
2018-10-18T10:25:41.403Z,11.93
2018-10-18T10:28:09.502Z,11.10
2018-10-18T10:30:37.751Z,12.55
2018-10-18T10:33:05.962Z,13.30
2018-10-18T10:35:34.084Z,12.65
2018-10-18T10:38:02.126Z,13.83
2018-10-18T10:40:30.269Z,12.18
2018-10-18T10:42:58.491Z,13.50
2018-10-18T10:45:26.706Z,13.22
2018-10-18T10:47:54.851Z,13.50
2018-10-18T10:50:23.050Z,12.78
2018-10-18T10:52:51.135Z,13.30
2018-10-18T10:55:19.457Z,13.18
2018-10-18T10:57:47.712Z,12.88
2018-10-18T11:00:21.512Z,13.28
2018-10-18T11:02:49.723Z,13.38
2018-10-18T11:05:17.840Z,14.00
2018-10-18T11:07:45.968Z,13.05
2018-10-18T11:10:14.150Z,13.20
2018-10-18T11:12:42.322Z,13.95
2018-10-18T11:15:10.458Z,13.05
2018-10-18T11:17:38.684Z,13.75
2018-10-18T11:20:06.932Z,13.08
2018-10-18T11:22:35.209Z,11.50
2018-10-18T11:25:03.332Z,11.93
2018-10-18T11:27:31.493Z,10.30
2018-10-18T11:29:59.597Z,9.28
2018-10-18T11:32:28.852Z,9.20
2018-10-18T11:34:56.952Z,8.70
2018-10-18T11:37:25.636Z,8.55
2018-10-18T11:39:53.744Z,9.30
2018-10-18T11:42:21.947Z,9.38
2018-10-18T11:44:49.976Z,10.75
2018-10-18T11:47:18.098Z,11.15
2018-10-18T11:49:46.200Z,10.95
2018-10-18T11:52:14.333Z,10.28
2018-10-18T11:54:43.068Z,10.68
2018-10-18T11:57:11.181Z,9.70
2018-10-18T11:59:39.276Z,10.25
2018-10-18T12:02:07.416Z,10.53
2018-10-18T12:04:35.509Z,10.55
2018-10-18T12:07:03.612Z,10.05
2018-10-18T12:09:31.712Z,10.48
2018-10-18T12:11:59.846Z,11.80
2018-10-18T12:14:27.969Z,12.63
2018-10-18T12:16:56.123Z,15.50
2018-10-18T12:19:24.231Z,13.28
2018-10-18T12:21:52.431Z,13.18
2018-10-18T12:24:20.553Z,13.00
2018-10-18T12:26:48.695Z,12.25
2018-10-18T12:29:17.311Z,12.90
2018-10-18T12:31:45.416Z,12.47
2018-10-18T12:34:13.627Z,11.25
2018-10-18T12:36:41.799Z,12.40
2018-10-18T12:39:10.267Z,11.95
2018-10-18T12:41:38.520Z,12.70
2018-10-18T12:44:06.520Z,12.45
2018-10-18T12:46:34.609Z,11.12
2018-10-18T12:49:02.773Z,12.53
2018-10-18T12:51:31.129Z,13.05
2018-10-18T12:53:59.281Z,12.45
2018-10-18T12:56:27.384Z,11.68
2018-10-18T12:58:55.500Z,11.90
2018-10-18T13:01:23.588Z,11.83
2018-10-18T13:03:51.818Z,12.55
2018-10-18T13:06:19.988Z,13.90
2018-10-18T13:08:48.088Z,12.50
2018-10-18T13:11:16.196Z,11.63
2018-10-18T13:13:44.324Z,11.70
2018-10-18T13:16:12.460Z,11.08
2018-10-18T13:18:40.613Z,11.45
2018-10-18T13:21:08.819Z,12.10
2018-10-18T13:23:37.015Z,11.80
2018-10-18T13:26:05.173Z,11.73
2018-10-18T13:28:33.319Z,11.95
2018-10-18T13:31:01.434Z,12.37
2018-10-18T13:33:29.641Z,11.50
2018-10-18T13:35:57.811Z,11.00
2018-10-18T13:38:25.958Z,11.08
2018-10-18T13:40:54.338Z,10.78
2018-10-18T13:43:22.386Z,11.83
2018-10-18T13:45:50.502Z,12.28
2018-10-18T13:48:18.691Z,11.38
2018-10-18T13:50:46.999Z,11.57
2018-10-18T13:53:15.108Z,11.33
2018-10-18T13:55:43.296Z,11.80
2018-10-18T13:58:11.453Z,12.18
2018-10-18T14:00:39.573Z,12.30
2018-10-18T14:03:07.861Z,12.50
2018-10-18T14:05:36.063Z,12.90
2018-10-18T14:08:04.118Z,13.05
2018-10-18T14:10:32.256Z,13.70
2018-10-18T14:13:00.413Z,13.88
2018-10-18T14:15:28.523Z,13.68
2018-10-18T14:17:56.728Z,14.20
2018-10-18T14:20:24.763Z,14.03
2018-10-18T14:22:52.970Z,14.05
2018-10-18T14:25:21.052Z,15.08
2018-10-18T14:27:49.148Z,15.18
2018-10-18T14:30:17.386Z,15.20
2018-10-18T14:32:45.412Z,15.32
2018-10-18T14:35:13.764Z,14.90
2018-10-18T14:37:41.820Z,16.00
2018-10-18T14:40:11.919Z,16.50
2018-10-18T14:42:40.071Z,15.75
2018-10-18T14:45:08.479Z,17.23
2018-10-18T14:47:36.695Z,17.00
2018-10-18T14:50:05.623Z,17.45
2018-10-18T14:52:33.855Z,17.50
2018-10-18T14:55:01.978Z,19.32
2018-10-18T14:57:30.252Z,18.40
2018-10-18T14:59:58.384Z,18.32
2018-10-18T15:02:26.488Z,18.00
2018-10-18T15:04:54.594Z,18.75
2018-10-18T15:07:22.816Z,17.10
2018-10-18T15:09:50.921Z,17.90
2018-10-18T15:12:19.165Z,18.27
2018-10-18T15:14:47.305Z,17.45
2018-10-18T15:17:15.507Z,17.82
2018-10-18T15:19:43.591Z,17.50
2018-10-18T15:22:11.736Z,17.73
2018-10-18T15:24:39.841Z,17.92
2018-10-18T15:27:07.971Z,16.57
2018-10-18T15:29:36.063Z,17.15
2018-10-18T15:32:04.319Z,18.02
2018-10-18T15:34:32.463Z,18.05
2018-10-18T15:37:00.635Z,16.65
2018-10-18T15:39:28.769Z,17.60
2018-10-18T15:41:56.978Z,18.05
2018-10-18T15:44:25.202Z,17.50
2018-10-18T15:46:53.234Z,18.12
2018-10-18T15:49:21.429Z,18.00
2018-10-18T15:51:49.622Z,16.48
2018-10-18T15:54:17.766Z,12.37
2018-10-18T15:56:45.824Z,12.70
2018-10-18T15:59:14.052Z,10.28
2018-10-18T16:01:42.097Z,8.78
2018-10-18T16:04:10.213Z,8.30
2018-10-18T16:06:38.912Z,7.85
2018-10-18T16:09:08.847Z,7.87
2018-10-18T16:11:36.988Z,7.97
2018-10-18T16:14:05.187Z,7.92
2018-10-18T16:16:33.292Z,7.35
2018-10-18T16:19:01.521Z,7.45
2018-10-18T16:21:29.651Z,6.78
2018-10-18T16:23:57.792Z,7.15
2018-10-18T16:26:26.195Z,7.20
2018-10-18T16:28:54.253Z,6.60
2018-10-18T16:31:22.411Z,7.60
2018-10-18T16:33:50.608Z,7.22
2018-10-18T16:36:19.144Z,6.15
2018-10-18T16:38:48.025Z,5.72
2018-10-18T16:41:16.410Z,5.55
2018-10-18T16:43:44.276Z,5.50
2018-10-18T16:46:12.500Z,5.62
2018-10-18T16:48:40.711Z,5.90
2018-10-18T16:51:08.864Z,6.22
2018-10-18T16:53:36.983Z,6.53
2018-10-18T16:56:05.223Z,7.08
2018-10-18T16:58:33.345Z,7.70
2018-10-18T17:01:02.116Z,8.03
2018-10-18T17:03:30.217Z,7.70
2018-10-18T17:05:58.544Z,8.48
2018-10-18T17:08:26.620Z,9.05
2018-10-18T17:10:54.760Z,8.88
2018-10-18T17:13:22.877Z,9.20
2018-10-18T17:15:51.005Z,8.78
2018-10-18T17:18:19.199Z,9.18
2018-10-18T17:20:47.360Z,9.15
2018-10-18T17:23:15.519Z,9.55
2018-10-18T17:25:43.649Z,10.60
2018-10-18T17:28:11.765Z,10.65
2018-10-18T17:30:39.937Z,11.45
2018-10-18T17:33:08.132Z,11.10
2018-10-18T17:35:36.227Z,11.15
2018-10-18T17:38:04.452Z,11.03
2018-10-18T17:40:32.611Z,11.75
2018-10-18T17:43:01.005Z,11.90
2018-10-18T17:45:29.132Z,11.43
2018-10-18T17:47:57.358Z,10.32
2018-10-18T17:50:25.473Z,11.48
2018-10-18T17:52:53.727Z,11.18
2018-10-18T17:55:21.849Z,10.48
2018-10-18T17:57:49.990Z,15.28
2018-10-18T18:00:18.194Z,10.93
2018-10-18T18:02:46.297Z,11.50
2018-10-18T18:05:14.441Z,10.80
2018-10-18T18:07:42.617Z,12.05
2018-10-18T18:10:12.687Z,11.43
2018-10-18T18:12:41.251Z,11.63
2018-10-18T18:15:09.756Z,11.20
2018-10-18T18:17:38.033Z,10.88
2018-10-18T18:20:06.792Z,11.28
2018-10-18T18:22:34.921Z,11.48
2018-10-18T18:25:03.070Z,10.78
2018-10-18T18:27:31.280Z,11.45
2018-10-18T18:29:59.388Z,12.60
2018-10-18T18:32:27.614Z,11.68
2018-10-18T18:34:55.812Z,11.93
2018-10-18T18:37:23.976Z,12.40
2018-10-18T18:39:52.061Z,12.18
2018-10-18T18:42:20.269Z,12.60
2018-10-18T18:44:48.597Z,13.00
2018-10-18T18:47:16.823Z,13.62
2018-10-18T18:49:44.999Z,13.40
2018-10-18T18:52:13.149Z,12.43
2018-10-18T18:54:41.500Z,12.25
2018-10-18T18:57:09.683Z,10.35
2018-10-18T18:59:37.869Z,8.40
2018-10-18T19:02:05.986Z,6.28
2018-10-18T19:04:34.127Z,6.00
2018-10-18T19:07:02.869Z,6.17
2018-10-18T19:09:30.982Z,5.78
2018-10-18T19:11:59.191Z,5.67
2018-10-18T19:14:27.327Z,6.45
2018-10-18T19:16:55.553Z,6.22
2018-10-18T19:19:23.750Z,5.78
2018-10-18T19:21:51.949Z,5.47
2018-10-18T19:24:20.059Z,5.87
2018-10-18T19:26:48.404Z,5.83
2018-10-18T19:29:16.541Z,6.20
2018-10-18T19:31:44.733Z,5.28
2018-10-18T19:34:12.930Z,5.20
2018-10-18T19:36:41.037Z,4.70
2018-10-18T19:39:09.720Z,4.37
2018-10-18T19:41:37.926Z,4.00
2018-10-18T19:44:06.124Z,5.00
2018-10-18T19:46:35.073Z,4.62
2018-10-18T19:49:03.256Z,4.60
2018-10-18T19:51:31.448Z,4.60
2018-10-18T19:53:59.576Z,4.22
2018-10-18T19:56:27.679Z,4.28
2018-10-18T19:58:56.661Z,3.98
2018-10-18T20:01:24.890Z,3.50
2018-10-18T20:03:53.032Z,3.33
2018-10-18T20:06:21.691Z,3.12
2018-10-18T20:08:50.243Z,3.08
2018-10-18T20:11:18.356Z,2.77
2018-10-18T20:13:46.474Z,2.77
2018-10-18T20:16:14.635Z,3.10
2018-10-18T20:18:42.817Z,2.90
2018-10-18T20:21:10.961Z,2.67
2018-10-18T20:23:39.030Z,2.60
2018-10-18T20:26:08.154Z,2.77
2018-10-18T20:28:35.944Z,2.58
2018-10-18T20:31:04.290Z,2.42
2018-10-18T20:33:32.432Z,2.20
2018-10-18T20:36:00.536Z,2.40
2018-10-18T20:38:28.896Z,2.75
2018-10-18T20:40:57.048Z,2.87
2018-10-18T20:43:25.137Z,3.10
2018-10-18T20:45:53.273Z,2.65
2018-10-18T20:48:21.313Z,3.02
2018-10-18T20:50:49.508Z,2.98
2018-10-18T20:53:17.617Z,2.75
2018-10-18T20:55:45.875Z,3.45
2018-10-18T20:58:13.984Z,3.52
2018-10-18T21:00:42.234Z,4.10
2018-10-18T21:03:10.393Z,3.37
2018-10-18T21:05:38.448Z,3.55
2018-10-18T21:08:06.564Z,3.92
2018-10-18T21:10:35.320Z,3.37
2018-10-18T21:13:03.538Z,3.80
2018-10-18T21:15:31.631Z,4.92
2018-10-18T21:17:59.829Z,6.37
2018-10-18T21:20:27.888Z,9.65
2018-10-18T21:22:55.984Z,9.43
2018-10-18T21:25:24.105Z,7.92
2018-10-18T21:27:52.413Z,6.78
2018-10-18T21:30:20.511Z,7.25
2018-10-18T21:32:48.686Z,6.97
2018-10-18T21:35:16.893Z,7.15
2018-10-18T21:37:44.904Z,5.53
2018-10-18T21:40:13.110Z,5.35
2018-10-18T21:42:41.451Z,4.60
2018-10-18T21:45:09.702Z,4.37
2018-10-18T21:47:37.966Z,5.05
2018-10-18T21:50:06.971Z,4.10
2018-10-18T21:52:35.283Z,4.05
2018-10-18T21:55:03.861Z,4.75
2018-10-18T21:57:32.048Z,3.60
2018-10-18T22:00:00.190Z,3.30
2018-10-18T22:02:28.376Z,5.00
2018-10-18T22:04:56.590Z,4.15
2018-10-18T22:07:24.712Z,3.58
2018-10-18T22:09:52.788Z,3.37
2018-10-18T22:12:20.881Z,2.77
2018-10-18T22:14:49.035Z,3.85
2018-10-18T22:17:17.179Z,3.58
2018-10-18T22:19:45.247Z,3.40
2018-10-18T22:22:13.332Z,2.80
2018-10-18T22:24:41.564Z,3.52
2018-10-18T22:27:09.798Z,2.77
2018-10-18T22:29:37.923Z,2.80
2018-10-18T22:32:06.020Z,2.65
2018-10-18T22:34:34.128Z,2.60
2018-10-18T22:37:02.274Z,2.95
2018-10-18T22:39:30.344Z,2.42
2018-10-18T22:41:58.439Z,2.35
2018-10-18T22:44:26.512Z,2.30
2018-10-18T22:46:54.658Z,2.20
2018-10-18T22:49:22.778Z,2.83
2018-10-18T22:51:50.944Z,2.10
2018-10-18T22:54:19.112Z,2.17
2018-10-18T22:56:47.247Z,2.20
2018-10-18T22:59:15.523Z,1.98
2018-10-18T23:01:43.548Z,5.80
2018-10-18T23:04:11.700Z,2.17
2018-10-18T23:06:39.787Z,2.60
2018-10-18T23:09:08.773Z,2.30
2018-10-18T23:11:36.838Z,2.10
2018-10-18T23:14:05.523Z,2.08
2018-10-18T23:16:33.817Z,1.95
2018-10-18T23:19:01.985Z,1.90
2018-10-18T23:21:30.147Z,2.20
2018-10-18T23:23:58.356Z,1.90
2018-10-18T23:26:26.437Z,2.02
2018-10-18T23:28:54.594Z,2.52
2018-10-18T23:31:22.743Z,2.08
2018-10-18T23:33:51.116Z,2.33
2018-10-18T23:36:19.217Z,2.40
2018-10-18T23:38:48.228Z,2.40
2018-10-18T23:41:16.384Z,2.15
2018-10-18T23:43:44.428Z,2.20
2018-10-18T23:46:12.661Z,2.40
2018-10-18T23:48:40.808Z,1.98
2018-10-18T23:51:09.049Z,2.10
2018-10-18T23:53:37.067Z,1.82
2018-10-18T23:56:05.184Z,2.20
2018-10-18T23:58:33.380Z,2.27
